sensor_id;sensor_type;location;lat;lon;timestamp;pressure;altitude;pressure_sealevel;temperature;humidity
46007;BME280;31738;50.188;8.524;2022-07-03T00:00:24;98936.75;;;18.94;61.83
46007;BME280;31738;50.188;8.524;2022-07-03T00:02:50;98940.59;;;18.93;61.70
46007;BME280;31738;50.188;8.524;2022-07-03T00:05:16;98939.63;;;18.89;61.92
46007;BME280;31738;50.188;8.524;2022-07-03T00:07:41;98947.31;;;18.87;61.95
46007;BME280;31738;50.188;8.524;2022-07-03T00:10:07;98946.34;;;18.83;62.54
46007;BME280;31738;50.188;8.524;2022-07-03T00:12:33;98947.00;;;18.80;62.10
46007;BME280;31738;50.188;8.524;2022-07-03T00:14:58;98943.00;;;18.77;62.32
46007;BME280;31738;50.188;8.524;2022-07-03T00:17:24;98940.94;;;18.74;62.49
46007;BME280;31738;50.188;8.524;2022-07-03T00:19:49;98938.88;;;18.71;62.64
46007;BME280;31738;50.188;8.524;2022-07-03T00:22:15;98933.75;;;18.69;63.13
46007;BME280;31738;50.188;8.524;2022-07-03T00:24:50;98926.06;;;18.63;62.78
46007;BME280;31738;50.188;8.524;2022-07-03T00:27:17;98925.28;;;18.62;63.21
46007;BME280;31738;50.188;8.524;2022-07-03T00:29:44;98924.50;;;18.62;63.45
46007;BME280;31738;50.188;8.524;2022-07-03T00:32:14;98920.47;;;18.59;63.56
46007;BME280;31738;50.188;8.524;2022-07-03T00:34:42;98923.50;;;18.58;63.67
46007;BME280;31738;50.188;8.524;2022-07-03T00:37:09;98922.72;;;18.57;63.99
46007;BME280;31738;50.188;8.524;2022-07-03T00:39:40;98917.94;;;18.54;63.59
46007;BME280;31738;50.188;8.524;2022-07-03T00:42:07;98919.53;;;18.55;64.18
46007;BME280;31738;50.188;8.524;2022-07-03T00:44:35;98907.84;;;18.55;64.33
46007;BME280;31738;50.188;8.524;2022-07-03T00:47:08;98907.72;;;18.51;64.50
46007;BME280;31738;50.188;8.524;2022-07-03T00:49:35;98908.03;;;18.50;64.15
46007;BME280;31738;50.188;8.524;2022-07-03T00:52:04;98908.34;;;18.48;64.32
46007;BME280;31738;50.188;8.524;2022-07-03T00:54:33;98900.53;;;18.47;64.57
46007;BME280;31738;50.188;8.524;2022-07-03T00:57:00;98898.91;;;18.46;65.34
46007;BME280;31738;50.188;8.524;2022-07-03T00:59:26;98896.50;;;18.44;64.79
46007;BME280;31738;50.188;8.524;2022-07-03T01:01:55;98891.09;;;18.44;65.09
46007;BME280;31738;50.188;8.524;2022-07-03T01:04:36;98884.34;;;18.33;65.22
46007;BME280;31738;50.188;8.524;2022-07-03T01:07:17;98891.59;;;18.38;65.64
46007;BME280;31738;50.188;8.524;2022-07-03T01:15:11;98888.34;;;18.27;66.00
46007;BME280;31738;50.188;8.524;2022-07-03T01:17:47;98886.25;;;18.24;65.88
46007;BME280;31738;50.188;8.524;2022-07-03T01:20:15;98884.03;;;18.26;66.40
46007;BME280;31738;50.188;8.524;2022-07-03T01:22:45;98882.91;;;18.27;66.22
46007;BME280;31738;50.188;8.524;2022-07-03T01:25:23;98886.91;;;18.21;66.22
46007;BME280;31738;50.188;8.524;2022-07-03T01:30:22;98874.63;;;18.24;66.22
46007;BME280;31738;50.188;8.524;2022-07-03T01:32:56;98885.31;;;18.20;65.73
46007;BME280;31738;50.188;8.524;2022-07-03T01:35:26;98877.81;;;18.17;66.71
46007;BME280;31738;50.188;8.524;2022-07-03T01:37:54;98877.81;;;18.17;66.65
46007;BME280;31738;50.188;8.524;2022-07-03T01:40:20;98871.25;;;18.18;67.03
46007;BME280;31738;50.188;8.524;2022-07-03T01:42:48;98869.66;;;18.17;67.30
46007;BME280;31738;50.188;8.524;2022-07-03T01:45:15;98873.50;;;18.16;67.04
46007;BME280;31738;50.188;8.524;2022-07-03T01:47:42;98856.41;;;18.16;67.51
46007;BME280;31738;50.188;8.524;2022-07-03T01:50:14;98852.88;;;18.15;66.97
46007;BME280;31738;50.188;8.524;2022-07-03T01:52:42;98857.03;;;18.13;67.27
46007;BME280;31738;50.188;8.524;2022-07-03T01:55:09;98865.50;;;18.11;67.24
46007;BME280;31738;50.188;8.524;2022-07-03T01:57:46;98856.56;;;18.02;67.20
46007;BME280;31738;50.188;8.524;2022-07-03T02:00:14;98857.97;;;18.00;68.10
46007;BME280;31738;50.188;8.524;2022-07-03T02:03:01;98856.53;;;17.85;67.92
46007;BME280;31738;50.188;8.524;2022-07-03T02:05:42;98857.94;;;17.83;68.33
46007;BME280;31738;50.188;8.524;2022-07-03T02:08:33;98843.88;;;17.72;68.42
46007;BME280;31738;50.188;8.524;2022-07-03T02:11:18;98839.28;;;17.64;69.21
46007;BME280;31738;50.188;8.524;2022-07-03T02:19:17;98839.88;;;17.53;70.52
46007;BME280;31738;50.188;8.524;2022-07-03T02:21:48;98840.19;;;17.51;70.42
46007;BME280;31738;50.188;8.524;2022-07-03T02:24:23;98830.16;;;17.52;70.30
46007;BME280;31738;50.188;8.524;2022-07-03T02:26:56;98829.16;;;17.48;70.64
46007;BME280;31738;50.188;8.524;2022-07-03T02:29:36;98831.72;;;17.44;70.92
46007;BME280;31738;50.188;8.524;2022-07-03T02:32:12;98838.75;;;17.45;70.95
46007;BME280;31738;50.188;8.524;2022-07-03T02:34:42;98840.47;;;17.41;70.85
46007;BME280;31738;50.188;8.524;2022-07-03T02:37:12;98835.66;;;17.38;71.15
46007;BME280;31738;50.188;8.524;2022-07-03T02:39:45;98836.31;;;17.35;71.53
46007;BME280;31738;50.188;8.524;2022-07-03T02:42:25;98838.16;;;17.26;71.72
46007;BME280;31738;50.188;8.524;2022-07-03T02:44:58;98833.72;;;17.30;71.65
46007;BME280;31738;50.188;8.524;2022-07-03T02:47:47;98839.41;;;17.20;72.24
46007;BME280;31738;50.188;8.524;2022-07-03T02:50:21;98842.00;;;17.25;71.86
46007;BME280;31738;50.188;8.524;2022-07-03T02:52:56;98832.28;;;17.24;71.63
46007;BME280;31738;50.188;8.524;2022-07-03T02:55:45;98837.03;;;17.19;71.55
46007;BME280;31738;50.188;8.524;2022-07-03T03:06:54;98839.09;;;17.13;71.93
46007;BME280;31738;50.188;8.524;2022-07-03T03:09:32;98837.97;;;17.14;72.25
46007;BME280;31738;50.188;8.524;2022-07-03T03:12:01;98837.50;;;17.12;72.32
46007;BME280;31738;50.188;8.524;2022-07-03T03:14:34;98838.59;;;17.11;72.78
46007;BME280;31738;50.188;8.524;2022-07-03T03:17:05;98838.59;;;17.11;72.96
46007;BME280;31738;50.188;8.524;2022-07-03T03:19:36;98838.91;;;17.09;72.55
46007;BME280;31738;50.188;8.524;2022-07-03T03:25:09;98839.97;;;17.00;72.97
46007;BME280;31738;50.188;8.524;2022-07-03T03:27:34;98840.47;;;17.02;72.99
46007;BME280;31738;50.188;8.524;2022-07-03T03:30:00;98845.88;;;17.02;73.57
46007;BME280;31738;50.188;8.524;2022-07-03T03:32:26;98839.97;;;17.00;73.35
46007;BME280;31738;50.188;8.524;2022-07-03T03:34:52;98845.06;;;17.01;72.99
46007;BME280;31738;50.188;8.524;2022-07-03T03:37:18;98852.44;;;17.01;73.58
46007;BME280;31738;50.188;8.524;2022-07-03T03:39:43;98852.44;;;17.01;73.39
46007;BME280;31738;50.188;8.524;2022-07-03T03:42:09;98851.63;;;17.00;73.58
46007;BME280;31738;50.188;8.524;2022-07-03T03:44:34;98852.44;;;17.01;73.78
46007;BME280;31738;50.188;8.524;2022-07-03T03:47:00;98854.00;;;17.02;73.49
46007;BME280;31738;50.188;8.524;2022-07-03T03:49:26;98850.22;;;17.03;73.78
46007;BME280;31738;50.188;8.524;2022-07-03T03:51:52;98848.28;;;17.03;74.11
46007;BME280;31738;50.188;8.524;2022-07-03T03:54:18;98852.94;;;17.03;73.75
46007;BME280;31738;50.188;8.524;2022-07-03T03:56:44;98859.13;;;17.03;73.69
46007;BME280;31738;50.188;8.524;2022-07-03T03:59:09;98866.47;;;17.03;73.85
46007;BME280;31738;50.188;8.524;2022-07-03T04:01:35;98855.91;;;17.01;74.18
46007;BME280;31738;50.188;8.524;2022-07-03T04:04:00;98861.06;;;17.03;74.21
46007;BME280;31738;50.188;8.524;2022-07-03T04:06:26;98851.81;;;17.04;74.18
46007;BME280;31738;50.188;8.524;2022-07-03T04:08:51;98860.44;;;17.06;74.48
46007;BME280;31738;50.188;8.524;2022-07-03T04:11:17;98854.69;;;17.08;74.33
46007;BME280;31738;50.188;8.524;2022-07-03T04:13:43;98854.84;;;17.11;74.29
46007;BME280;31738;50.188;8.524;2022-07-03T04:16:09;98858.06;;;17.13;74.34
46007;BME280;31738;50.188;8.524;2022-07-03T04:18:34;98855.34;;;17.13;74.51
46007;BME280;31738;50.188;8.524;2022-07-03T04:21:00;98859.66;;;17.14;74.17
46007;BME280;31738;50.188;8.524;2022-07-03T04:23:25;98859.81;;;17.18;74.01
46007;BME280;31738;50.188;8.524;2022-07-03T04:25:51;98860.94;;;17.17;74.53
46007;BME280;31738;50.188;8.524;2022-07-03T04:28:16;98861.41;;;17.19;74.57
46007;BME280;31738;50.188;8.524;2022-07-03T04:30:42;98862.72;;;17.21;74.47
46007;BME280;31738;50.188;8.524;2022-07-03T04:33:07;98856.66;;;17.24;74.51
46007;BME280;31738;50.188;8.524;2022-07-03T04:35:33;98854.44;;;17.26;74.91
46007;BME280;31738;50.188;8.524;2022-07-03T04:37:58;98859.72;;;17.31;74.70
46007;BME280;31738;50.188;8.524;2022-07-03T04:40:24;98858.63;;;17.32;75.17
46007;BME280;31738;50.188;8.524;2022-07-03T04:42:49;98862.59;;;17.35;74.91
46007;BME280;31738;50.188;8.524;2022-07-03T04:45:14;98864.69;;;17.38;75.45
46007;BME280;31738;50.188;8.524;2022-07-03T04:47:40;98867.59;;;17.41;75.20
46007;BME280;31738;50.188;8.524;2022-07-03T04:50:06;98868.56;;;17.45;75.35
46007;BME280;31738;50.188;8.524;2022-07-03T04:52:32;98872.25;;;17.49;75.84
46007;BME280;31738;50.188;8.524;2022-07-03T04:54:57;98866.50;;;17.51;75.44
46007;BME280;31738;50.188;8.524;2022-07-03T04:57:23;98870.19;;;17.55;75.65
46007;BME280;31738;50.188;8.524;2022-07-03T04:59:48;98864.97;;;17.58;75.64
46007;BME280;31738;50.188;8.524;2022-07-03T05:02:14;98870.84;;;17.60;76.24
46007;BME280;31738;50.188;8.524;2022-07-03T05:04:39;98870.22;;;17.63;76.07
46007;BME280;31738;50.188;8.524;2022-07-03T05:07:05;98866.41;;;17.64;76.13
46007;BME280;31738;50.188;8.524;2022-07-03T05:09:30;98866.22;;;17.69;76.47
46007;BME280;31738;50.188;8.524;2022-07-03T05:11:56;98864.50;;;17.73;76.96
46007;BME280;31738;50.188;8.524;2022-07-03T05:14:21;98863.88;;;17.76;76.77
46007;BME280;31738;50.188;8.524;2022-07-03T05:16:46;98861.78;;;17.82;76.64
46007;BME280;31738;50.188;8.524;2022-07-03T05:19:12;98867.41;;;17.85;76.59
46007;BME280;31738;50.188;8.524;2022-07-03T05:21:37;98876.97;;;17.91;76.12
46007;BME280;31738;50.188;8.524;2022-07-03T05:24:03;98881.13;;;17.97;76.18
46007;BME280;31738;50.188;8.524;2022-07-03T05:26:28;98885.94;;;18.00;75.55
46007;BME280;31738;50.188;8.524;2022-07-03T05:28:54;98883.38;;;18.04;75.91
46007;BME280;31738;50.188;8.524;2022-07-03T05:31:19;98885.16;;;18.08;76.02
46007;BME280;31738;50.188;8.524;2022-07-03T05:33:45;98879.06;;;18.11;76.05
46007;BME280;31738;50.188;8.524;2022-07-03T05:36:10;98884.34;;;18.16;76.05
46007;BME280;31738;50.188;8.524;2022-07-03T05:38:36;98889.28;;;18.23;75.56
46007;BME280;31738;50.188;8.524;2022-07-03T05:41:20;98896.03;;;18.25;75.33
46007;BME280;31738;50.188;8.524;2022-07-03T05:43:45;98895.84;;;18.30;75.03
46007;BME280;31738;50.188;8.524;2022-07-03T05:46:11;98897.59;;;18.35;74.07
46007;BME280;31738;50.188;8.524;2022-07-03T05:48:37;98902.59;;;18.41;74.10
46007;BME280;31738;50.188;8.524;2022-07-03T05:51:03;98900.97;;;18.49;73.89
46007;BME280;31738;50.188;8.524;2022-07-03T05:53:29;98904.81;;;18.56;73.87
46007;BME280;31738;50.188;8.524;2022-07-03T05:55:55;98907.38;;;18.61;73.65
46007;BME280;31738;50.188;8.524;2022-07-03T05:58:20;98906.91;;;18.68;73.57
46007;BME280;31738;50.188;8.524;2022-07-03T06:00:46;98903.22;;;18.73;73.58
46007;BME280;31738;50.188;8.524;2022-07-03T06:03:11;98902.72;;;18.79;72.91
46007;BME280;31738;50.188;8.524;2022-07-03T06:05:37;98912.00;;;18.87;72.85
46007;BME280;31738;50.188;8.524;2022-07-03T06:08:04;98911.63;;;18.97;72.37
46007;BME280;31738;50.188;8.524;2022-07-03T06:10:29;98915.94;;;19.06;72.30
46007;BME280;31738;50.188;8.524;2022-07-03T06:12:55;98923.72;;;19.16;71.64
46007;BME280;31738;50.188;8.524;2022-07-03T06:15:20;98925.63;;;19.24;72.15
46007;BME280;31738;50.188;8.524;2022-07-03T06:17:46;98927.09;;;19.30;71.91
46007;BME280;31738;50.188;8.524;2022-07-03T06:20:12;98934.09;;;19.40;71.42
46007;BME280;31738;50.188;8.524;2022-07-03T06:22:38;98926.19;;;19.55;70.84
46007;BME280;31738;50.188;8.524;2022-07-03T06:25:04;98926.28;;;19.67;70.32
46007;BME280;31738;50.188;8.524;2022-07-03T06:27:31;98935.19;;;19.85;70.08
46007;BME280;31738;50.188;8.524;2022-07-03T06:29:56;98936.38;;;19.96;69.53
46007;BME280;31738;50.188;8.524;2022-07-03T06:32:22;98933.78;;;20.08;69.65
46007;BME280;31738;50.188;8.524;2022-07-03T06:34:48;98936.59;;;20.20;69.23
46007;BME280;31738;50.188;8.524;2022-07-03T06:37:13;98944.03;;;20.31;68.09
46007;BME280;31738;50.188;8.524;2022-07-03T06:39:39;98947.63;;;20.44;68.05
46007;BME280;31738;50.188;8.524;2022-07-03T06:42:05;98949.75;;;20.59;68.04
46007;BME280;31738;50.188;8.524;2022-07-03T06:44:30;98956.53;;;20.74;67.15
46007;BME280;31738;50.188;8.524;2022-07-03T06:46:56;98956.94;;;20.84;66.38
46007;BME280;31738;50.188;8.524;2022-07-03T06:49:22;98965.19;;;20.96;65.89
46007;BME280;31738;50.188;8.524;2022-07-03T06:51:48;98970.34;;;21.10;65.27
46007;BME280;31738;50.188;8.524;2022-07-03T06:54:13;98974.72;;;21.23;65.56
46007;BME280;31738;50.188;8.524;2022-07-03T06:56:39;98978.84;;;21.41;65.33
46007;BME280;31738;50.188;8.524;2022-07-03T06:59:04;98980.44;;;21.54;65.20
46007;BME280;31738;50.188;8.524;2022-07-03T07:01:30;98989.47;;;21.66;63.99
46007;BME280;31738;50.188;8.524;2022-07-03T07:03:56;98985.66;;;21.79;63.79
46007;BME280;31738;50.188;8.524;2022-07-03T07:06:21;98988.03;;;21.93;63.28
46007;BME280;31738;50.188;8.524;2022-07-03T07:08:47;99000.81;;;22.01;62.64
46007;BME280;31738;50.188;8.524;2022-07-03T07:11:13;99006.59;;;22.12;62.30
46007;BME280;31738;50.188;8.524;2022-07-03T07:13:38;99000.09;;;22.28;62.80
46007;BME280;31738;50.188;8.524;2022-07-03T07:16:04;99003.16;;;22.39;61.85
46007;BME280;31738;50.188;8.524;2022-07-03T07:18:30;99012.97;;;22.52;61.47
46007;BME280;31738;50.188;8.524;2022-07-03T07:20:55;99011.13;;;22.56;61.26
46007;BME280;31738;50.188;8.524;2022-07-03T07:23:21;99019.53;;;22.63;61.19
46007;BME280;31738;50.188;8.524;2022-07-03T07:25:46;99027.28;;;22.73;60.27
46007;BME280;31738;50.188;8.524;2022-07-03T07:28:12;99030.00;;;22.85;60.69
46007;BME280;31738;50.188;8.524;2022-07-03T07:30:37;99030.28;;;22.95;59.39
46007;BME280;31738;50.188;8.524;2022-07-03T07:33:06;99036.06;;;23.06;59.23
46007;BME280;31738;50.188;8.524;2022-07-03T07:35:31;99048.94;;;23.17;58.82
46007;BME280;31738;50.188;8.524;2022-07-03T07:37:57;99048.56;;;23.31;59.17
46007;BME280;31738;50.188;8.524;2022-07-03T07:40:22;99053.09;;;23.39;58.57
46007;BME280;31738;50.188;8.524;2022-07-03T07:42:48;99060.09;;;23.52;58.53
46007;BME280;31738;50.188;8.524;2022-07-03T07:45:13;99052.97;;;23.63;58.76
46007;BME280;31738;50.188;8.524;2022-07-03T07:47:39;99056.09;;;23.77;58.11
46007;BME280;31738;50.188;8.524;2022-07-03T07:50:05;99057.94;;;23.89;57.64
46007;BME280;31738;50.188;8.524;2022-07-03T07:52:30;99059.84;;;24.00;56.66
46007;BME280;31738;50.188;8.524;2022-07-03T07:54:56;99063.19;;;24.09;56.02
46007;BME280;31738;50.188;8.524;2022-07-03T07:57:21;99074.16;;;24.09;56.07
46007;BME280;31738;50.188;8.524;2022-07-03T07:59:47;99067.25;;;24.15;56.20
46007;BME280;31738;50.188;8.524;2022-07-03T08:02:12;99065.84;;;24.21;55.93
46007;BME280;31738;50.188;8.524;2022-07-03T08:04:56;99060.47;;;24.25;56.00
46007;BME280;31738;50.188;8.524;2022-07-03T08:07:40;99074.88;;;24.37;55.95
46007;BME280;31738;50.188;8.524;2022-07-03T08:10:06;99065.38;;;24.50;55.53
46007;BME280;31738;50.188;8.524;2022-07-03T08:12:31;99056.50;;;24.57;56.22
46007;BME280;31738;50.188;8.524;2022-07-03T08:14:57;99059.16;;;24.69;55.91
46007;BME280;31738;50.188;8.524;2022-07-03T08:17:22;99063.38;;;24.82;55.42
46007;BME280;31738;50.188;8.524;2022-07-03T08:19:48;99061.28;;;24.94;55.11
46007;BME280;31738;50.188;8.524;2022-07-03T08:22:13;99065.50;;;25.07;54.98
46007;BME280;31738;50.188;8.524;2022-07-03T08:24:39;99065.66;;;25.14;55.15
46007;BME280;31738;50.188;8.524;2022-07-03T08:27:05;99070.13;;;25.23;53.96
46007;BME280;31738;50.188;8.524;2022-07-03T08:29:31;99068.56;;;25.22;54.15
46007;BME280;31738;50.188;8.524;2022-07-03T08:31:57;99062.94;;;25.34;54.93
46007;BME280;31738;50.188;8.524;2022-07-03T08:34:23;99068.72;;;25.48;54.68
46007;BME280;31738;50.188;8.524;2022-07-03T08:36:49;99065.66;;;25.53;53.70
46007;BME280;31738;50.188;8.524;2022-07-03T08:39:14;99068.97;;;25.62;53.48
46007;BME280;31738;50.188;8.524;2022-07-03T08:41:40;99071.56;;;25.74;53.27
46007;BME280;31738;50.188;8.524;2022-07-03T08:44:08;99078.84;;;25.85;51.87
46007;BME280;31738;50.188;8.524;2022-07-03T08:46:34;99077.00;;;25.93;52.04
46007;BME280;31738;50.188;8.524;2022-07-03T08:49:02;99072.59;;;26.07;52.54
46007;BME280;31738;50.188;8.524;2022-07-03T08:51:27;99077.97;;;26.23;52.26
46007;BME280;31738;50.188;8.524;2022-07-03T08:53:53;99085.13;;;26.27;51.02
46007;BME280;31738;50.188;8.524;2022-07-03T08:56:22;99083.59;;;26.30;50.94
46007;BME280;31738;50.188;8.524;2022-07-03T08:58:48;99093.56;;;26.38;49.74
46007;BME280;31738;50.188;8.524;2022-07-03T09:01:16;99092.16;;;26.51;49.62
46007;BME280;31738;50.188;8.524;2022-07-03T09:03:43;99102.19;;;26.62;49.14
46007;BME280;31738;50.188;8.524;2022-07-03T09:06:08;99108.56;;;26.66;48.58
46007;BME280;31738;50.188;8.524;2022-07-03T09:08:34;99106.41;;;26.79;48.34
46007;BME280;31738;50.188;8.524;2022-07-03T09:11:03;99103.44;;;26.91;47.75
46007;BME280;31738;50.188;8.524;2022-07-03T09:13:29;99104.38;;;27.02;47.79
46007;BME280;31738;50.188;8.524;2022-07-03T09:15:55;99108.44;;;27.12;47.38
46007;BME280;31738;50.188;8.524;2022-07-03T09:18:40;99110.78;;;27.10;46.71
46007;BME280;31738;50.188;8.524;2022-07-03T09:21:06;99112.84;;;27.16;47.50
46007;BME280;31738;50.188;8.524;2022-07-03T09:23:42;99103.28;;;27.36;46.90
46007;BME280;31738;50.188;8.524;2022-07-03T09:26:13;99112.06;;;27.45;46.43
46007;BME280;31738;50.188;8.524;2022-07-03T09:28:49;99119.00;;;27.65;45.63
46007;BME280;31738;50.188;8.524;2022-07-03T09:31:26;99125.56;;;27.87;44.59
46007;BME280;31738;50.188;8.524;2022-07-03T09:33:53;99125.41;;;27.76;45.23
46007;BME280;31738;50.188;8.524;2022-07-03T09:36:21;99124.41;;;27.88;44.99
46007;BME280;31738;50.188;8.524;2022-07-03T09:38:47;99122.97;;;28.04;44.79
46007;BME280;31738;50.188;8.524;2022-07-03T09:41:12;99121.94;;;28.19;44.11
46007;BME280;31738;50.188;8.524;2022-07-03T09:43:42;99125.63;;;28.34;43.90
46007;BME280;31738;50.188;8.524;2022-07-03T09:46:09;99117.94;;;28.54;42.56
46007;BME280;31738;50.188;8.524;2022-07-03T09:48:37;99139.38;;;28.71;42.22
46007;BME280;31738;50.188;8.524;2022-07-03T09:51:20;99145.41;;;28.87;41.01
46007;BME280;31738;50.188;8.524;2022-07-03T09:53:57;99154.56;;;28.98;41.14
46007;BME280;31738;50.188;8.524;2022-07-03T09:56:34;99160.13;;;29.01;39.63
46007;BME280;31738;50.188;8.524;2022-07-03T09:59:05;99170.50;;;29.15;38.35
46007;BME280;31738;50.188;8.524;2022-07-03T10:01:33;99164.25;;;29.25;39.33
46007;BME280;31738;50.188;8.524;2022-07-03T10:04:10;99162.75;;;29.45;38.76
46007;BME280;31738;50.188;8.524;2022-07-03T10:09:25;99177.94;;;29.72;37.45
46007;BME280;31738;50.188;8.524;2022-07-03T10:11:52;99178.78;;;29.90;37.55
46007;BME280;31738;50.188;8.524;2022-07-03T10:14:20;99173.66;;;29.99;37.19
46007;BME280;31738;50.188;8.524;2022-07-03T10:16:47;99176.06;;;30.11;36.83
46007;BME280;31738;50.188;8.524;2022-07-03T10:19:24;99182.03;;;30.20;36.94
46007;BME280;31738;50.188;8.524;2022-07-03T10:21:59;99178.09;;;30.25;36.10
46007;BME280;31738;50.188;8.524;2022-07-03T10:24:27;99171.78;;;30.31;36.65
46007;BME280;31738;50.188;8.524;2022-07-03T10:26:54;99172.59;;;30.42;36.25
46007;BME280;31738;50.188;8.524;2022-07-03T10:29:22;99184.50;;;30.57;35.23
46007;BME280;31738;50.188;8.524;2022-07-03T10:31:47;99186.06;;;30.68;34.82
46007;BME280;31738;50.188;8.524;2022-07-03T10:34:18;99208.25;;;30.72;34.13
46007;BME280;31738;50.188;8.524;2022-07-03T10:36:45;99183.72;;;30.77;34.23
46007;BME280;31738;50.188;8.524;2022-07-03T10:42:08;99206.69;;;30.88;33.49
46007;BME280;31738;50.188;8.524;2022-07-03T10:45:10;99197.16;;;30.89;33.38
46007;BME280;31738;50.188;8.524;2022-07-03T10:50:26;99195.22;;;30.93;32.96
46007;BME280;31738;50.188;8.524;2022-07-03T10:52:51;99196.38;;;31.06;32.79
46007;BME280;31738;50.188;8.524;2022-07-03T10:55:17;99203.50;;;31.11;32.33
46007;BME280;31738;50.188;8.524;2022-07-03T10:58:08;99201.91;;;31.17;32.29
46007;BME280;31738;50.188;8.524;2022-07-03T11:01:04;99201.09;;;31.20;31.69
46007;BME280;31738;50.188;8.524;2022-07-03T11:03:51;99205.88;;;31.19;31.87
46007;BME280;31738;50.188;8.524;2022-07-03T11:06:17;99208.25;;;31.31;32.97
46007;BME280;31738;50.188;8.524;2022-07-03T11:09:02;99208.63;;;31.40;30.68
46007;BME280;31738;50.188;8.524;2022-07-03T11:11:33;99197.09;;;31.52;31.54
46007;BME280;31738;50.188;8.524;2022-07-03T11:14:19;99192.72;;;31.59;31.80
46007;BME280;31738;50.188;8.524;2022-07-03T11:16:45;99198.25;;;31.66;31.28
46007;BME280;31738;50.188;8.524;2022-07-03T11:21:50;99184.72;;;31.75;31.95
46007;BME280;31738;50.188;8.524;2022-07-03T11:24:35;99175.59;;;31.85;32.54
46007;BME280;31738;50.188;8.524;2022-07-03T11:27:12;99172.34;;;31.97;32.08
46007;BME280;31738;50.188;8.524;2022-07-03T11:29:38;99159.97;;;32.12;32.52
46007;BME280;31738;50.188;8.524;2022-07-03T11:32:45;99162.72;;;32.12;31.39
46007;BME280;31738;50.188;8.524;2022-07-03T11:38:23;99157.34;;;31.77;31.68
46007;BME280;31738;50.188;8.524;2022-07-03T11:40:51;99152.91;;;31.97;33.08
46007;BME280;31738;50.188;8.524;2022-07-03T11:43:17;99146.13;;;32.05;32.20
46007;BME280;31738;50.188;8.524;2022-07-03T11:45:43;99133.41;;;32.07;32.84
46007;BME280;31738;50.188;8.524;2022-07-03T11:48:12;99129.78;;;32.17;32.58
46007;BME280;31738;50.188;8.524;2022-07-03T11:50:40;99130.09;;;32.30;31.19
46007;BME280;31738;50.188;8.524;2022-07-03T11:53:26;99130.09;;;32.30;31.01
46007;BME280;31738;50.188;8.524;2022-07-03T11:56:02;99144.41;;;32.28;30.42
46007;BME280;31738;50.188;8.524;2022-07-03T11:58:46;99137.28;;;32.24;30.51
46007;BME280;31738;50.188;8.524;2022-07-03T12:03:49;99128.50;;;32.36;31.43
46007;BME280;31738;50.188;8.524;2022-07-03T12:06:15;99136.00;;;32.39;30.55
46007;BME280;31738;50.188;8.524;2022-07-03T12:08:41;99137.91;;;32.49;30.61
46007;BME280;31738;50.188;8.524;2022-07-03T12:11:13;99117.13;;;32.64;31.51
46007;BME280;31738;50.188;8.524;2022-07-03T12:13:39;99128.94;;;32.75;30.28
46007;BME280;31738;50.188;8.524;2022-07-03T12:18:52;99123.03;;;32.73;30.42
46007;BME280;31738;50.188;8.524;2022-07-03T12:21:20;99115.34;;;32.84;30.35
46007;BME280;31738;50.188;8.524;2022-07-03T12:23:51;99120.28;;;32.66;30.56
46007;BME280;31738;50.188;8.524;2022-07-03T12:26:33;99127.69;;;32.35;30.60
46007;BME280;31738;50.188;8.524;2022-07-03T12:29:10;99119.28;;;32.46;31.34
46007;BME280;31738;50.188;8.524;2022-07-03T12:31:47;99115.56;;;32.63;30.54
46007;BME280;31738;50.188;8.524;2022-07-03T12:34:15;99119.03;;;32.74;29.65
46007;BME280;31738;50.188;8.524;2022-07-03T12:36:59;99125.88;;;32.62;29.33
46007;BME280;31738;50.188;8.524;2022-07-03T12:39:44;99119.47;;;32.69;29.32
46007;BME280;31738;50.188;8.524;2022-07-03T12:42:22;99118.66;;;32.72;29.66
46007;BME280;31738;50.188;8.524;2022-07-03T12:45:02;99113.09;;;32.72;29.51
46007;BME280;31738;50.188;8.524;2022-07-03T12:47:30;99109.16;;;32.66;29.32
46007;BME280;31738;50.188;8.524;2022-07-03T12:50:03;99105.94;;;32.74;29.76
46007;BME280;31738;50.188;8.524;2022-07-03T12:52:32;99108.19;;;32.86;29.08
46007;BME280;31738;50.188;8.524;2022-07-03T12:54:59;99099.41;;;32.91;28.82
46007;BME280;31738;50.188;8.524;2022-07-03T12:57:25;99103.78;;;32.92;28.95
46007;BME280;31738;50.188;8.524;2022-07-03T13:00:11;99095.53;;;32.82;29.44
46007;BME280;31738;50.188;8.524;2022-07-03T13:02:39;99094.34;;;32.79;29.19
46007;BME280;31738;50.188;8.524;2022-07-03T13:05:23;99096.03;;;32.70;29.30
46007;BME280;31738;50.188;8.524;2022-07-03T13:07:54;99090.63;;;32.56;29.16
46007;BME280;31738;50.188;8.524;2022-07-03T13:10:21;99087.16;;;32.41;29.55
46007;BME280;31738;50.188;8.524;2022-07-03T13:12:55;99090.88;;;32.21;29.03
46007;BME280;31738;50.188;8.524;2022-07-03T13:15:26;99079.00;;;32.17;29.70
46007;BME280;31738;50.188;8.524;2022-07-03T13:20:29;99077.66;;;32.39;28.40
46007;BME280;31738;50.188;8.524;2022-07-03T13:22:57;99084.00;;;32.39;28.24
46007;BME280;31738;50.188;8.524;2022-07-03T13:25:23;99080.81;;;32.41;28.89
46007;BME280;31738;50.188;8.524;2022-07-03T13:27:49;99090.31;;;32.47;27.84
46007;BME280;31738;50.188;8.524;2022-07-03T13:30:16;99073.63;;;32.47;28.43
46007;BME280;31738;50.188;8.524;2022-07-03T13:32:41;99086.38;;;32.41;28.26
46007;BME280;31738;50.188;8.524;2022-07-03T13:35:08;99080.47;;;32.32;28.54
46007;BME280;31738;50.188;8.524;2022-07-03T13:37:34;99082.88;;;32.30;28.26
46007;BME280;31738;50.188;8.524;2022-07-03T13:40:01;99074.06;;;32.42;28.50
46007;BME280;31738;50.188;8.524;2022-07-03T13:42:27;99075.72;;;32.36;29.00
46007;BME280;31738;50.188;8.524;2022-07-03T13:44:52;99069.00;;;32.30;29.53
46007;BME280;31738;50.188;8.524;2022-07-03T13:47:18;99060.19;;;32.38;28.77
46007;BME280;31738;50.188;8.524;2022-07-03T13:49:43;99066.13;;;32.44;28.72
46007;BME280;31738;50.188;8.524;2022-07-03T13:52:09;99062.44;;;32.54;28.56
46007;BME280;31738;50.188;8.524;2022-07-03T13:54:34;99069.13;;;32.60;28.79
46007;BME280;31738;50.188;8.524;2022-07-03T13:57:01;99065.41;;;32.73;28.44